Time;durP1;ratioP1;P1;durP2;ratioP2;P2;SDS_P1;SDS_P2;PMS_P1;PMS_P2;Temp;Humidity;BMP_temperature;BMP_pressure;BME280_temperature;BME280_humidity;BME280_pressure;Samples;Min_cycle;Max_cycle;Signal;HPM_P1;HPM_P2
2022/10/31 00:00:46;;;;;;;21.20;18.33;;;13.20;99.90;;;;;;5029685;28;20917;-72
2022/10/31 00:03:12;;;;;;;28.77;20.50;;;13.20;99.90;;;;;;5030690;28;20430;-72
2022/10/31 00:05:45;;;;;;;24.60;19.10;;;13.20;99.90;;;;;;5032428;28;20421;-72
2022/10/31 00:08:10;;;;;;;22.73;17.93;;;13.20;99.90;;;;;;5032120;28;20174;-72
2022/10/31 00:10:40;;;;;;;26.60;16.97;;;13.10;99.90;;;;;;5032169;28;20410;-72
2022/10/31 00:13:07;;;;;;;32.27;18.27;;;13.10;99.90;;;;;;5032729;28;20238;-72
2022/10/31 00:15:38;;;;;;;22.27;16.27;;;13.20;99.90;;;;;;5032678;28;20438;-74
2022/10/31 00:18:05;;;;;;;24.07;17.20;;;13.20;99.90;;;;;;5036761;28;20450;-72
2022/10/31 00:20:31;;;;;;;26.77;17.67;;;13.20;99.90;;;;;;5035400;28;20399;-71
2022/10/31 00:22:58;;;;;;;20.20;17.47;;;13.20;99.90;;;;;;5034015;28;20421;-71
2022/10/31 00:25:24;;;;;;;25.67;18.03;;;13.10;99.90;;;;;;5033989;28;20444;-71
2022/10/31 00:27:50;;;;;;;25.20;18.50;;;13.10;99.90;;;;;;5034188;28;20437;-71
2022/10/31 00:30:15;;;;;;;22.70;18.00;;;13.10;99.90;;;;;;5034101;28;20887;-72
2022/10/31 00:32:41;;;;;;;33.47;16.90;;;13.00;99.90;;;;;;5024784;28;20330;-71
2022/10/31 00:35:06;;;;;;;27.17;18.73;;;13.00;99.90;;;;;;5031142;28;20290;-71
2022/10/31 00:37:32;;;;;;;22.87;16.70;;;13.00;99.90;;;;;;5048181;28;20198;-71
2022/10/31 00:39:58;;;;;;;23.43;16.73;;;13.00;99.90;;;;;;5024814;28;20167;-71
2022/10/31 00:42:23;;;;;;;25.53;16.60;;;13.00;99.90;;;;;;5044335;28;20195;-71
2022/10/31 00:44:49;;;;;;;21.77;16.77;;;13.10;99.90;;;;;;5045950;28;20170;-71
2022/10/31 00:47:14;;;;;;;23.87;17.27;;;13.00;99.90;;;;;;5038094;28;20176;-72
2022/10/31 00:49:40;;;;;;;19.87;15.23;;;13.00;99.90;;;;;;5049729;28;20230;-72
2022/10/31 00:52:05;;;;;;;22.03;16.87;;;13.00;99.90;;;;;;5037316;28;20240;-72
2022/10/31 00:54:31;;;;;;;19.70;15.07;;;12.90;99.90;;;;;;5050109;28;20587;-72
2022/10/31 00:56:57;;;;;;;21.43;15.20;;;12.90;99.90;;;;;;5048561;28;20171;-73
2022/10/31 00:59:22;;;;;;;28.70;17.87;;;12.90;99.90;;;;;;5059444;28;20171;-72
2022/10/31 01:01:48;;;;;;;24.87;16.07;;;12.90;99.90;;;;;;5047583;28;20918;-72
2022/10/31 01:04:14;;;;;;;25.07;15.50;;;12.90;99.90;;;;;;5054608;28;20188;-72
2022/10/31 01:06:39;;;;;;;24.23;16.07;;;12.90;99.90;;;;;;5054248;28;20167;-72
2022/10/31 01:09:05;;;;;;;17.33;13.87;;;12.90;99.90;;;;;;5051844;28;20186;-72
2022/10/31 01:11:30;;;;;;;17.60;14.30;;;12.90;99.90;;;;;;5062812;28;20183;-73
2022/10/31 01:13:56;;;;;;;18.70;14.20;;;12.90;99.90;;;;;;5051021;28;20225;-72
2022/10/31 01:16:24;;;;;;;20.20;14.73;;;12.90;99.90;;;;;;5047039;28;20171;-72
2022/10/31 01:18:50;;;;;;;18.10;14.23;;;12.90;99.90;;;;;;5045306;28;20280;-71
2022/10/31 01:21:25;;;;;;;17.77;14.17;;;12.90;99.90;;;;;;5036368;28;20421;-71
2022/10/31 01:23:53;;;;;;;18.30;12.17;;;12.80;99.90;;;;;;5021772;28;20429;-71
2022/10/31 01:26:24;;;;;;;15.93;13.97;;;12.80;99.90;;;;;;5042778;28;20943;-71
2022/10/31 01:28:52;;;;;;;20.63;14.50;;;12.70;99.90;;;;;;5032584;28;20517;-71
2022/10/31 01:31:20;;;;;;;23.47;14.07;;;12.70;99.90;;;;;;5049168;28;20993;-71
2022/10/31 01:33:45;;;;;;;20.90;14.13;;;12.80;99.90;;;;;;5036406;28;20429;-72
2022/10/31 01:36:20;;;;;;;16.60;12.20;;;12.70;99.90;;;;;;5045146;28;20464;-72
2022/10/31 01:38:47;;;;;;;16.93;11.60;;;12.70;99.90;;;;;;5042927;28;20210;-71
2022/10/31 01:41:16;;;;;;;16.00;12.70;;;12.70;99.90;;;;;;5032825;28;20414;-72
2022/10/31 01:43:56;;;;;;;16.67;11.83;;;12.70;99.90;;;;;;5033004;28;20925;-71
2022/10/31 01:46:40;;;;;;;17.20;12.40;;;12.70;99.90;;;;;;5032503;28;20440;-72
2022/10/31 01:49:14;;;;;;;16.03;12.03;;;12.70;99.90;;;;;;5033014;28;20827;-72
2022/10/31 01:51:55;;;;;;;17.57;12.50;;;12.60;99.90;;;;;;5032776;28;20468;-71
2022/10/31 01:54:25;;;;;;;40.50;15.07;;;12.60;99.90;;;;;;5028251;28;20815;-72
2022/10/31 01:56:55;;;;;;;19.53;14.53;;;12.60;99.90;;;;;;5013671;28;20458;-72
2022/10/31 01:59:22;;;;;;;17.63;12.10;;;12.60;99.90;;;;;;5012951;28;20462;-72
2022/10/31 02:01:50;;;;;;;17.97;12.27;;;12.60;99.90;;;;;;5012519;28;20407;-71
2022/10/31 02:04:16;;;;;;;19.73;12.63;;;12.50;99.90;;;;;;5012447;28;20484;-72
2022/10/31 02:06:50;;;;;;;15.80;12.27;;;12.60;99.90;;;;;;5012713;28;20422;-71
2022/10/31 02:09:16;;;;;;;17.93;13.03;;;12.50;99.90;;;;;;5012628;28;20966;-71
2022/10/31 02:11:44;;;;;;;21.00;12.87;;;12.50;99.90;;;;;;5018258;28;20464;-71
2022/10/31 02:14:10;;;;;;;16.13;12.53;;;12.50;99.90;;;;;;5032396;28;20456;-72
2022/10/31 02:16:35;;;;;;;17.07;12.00;;;12.50;99.90;;;;;;5032250;28;20505;-72
2022/10/31 02:19:04;;;;;;;20.80;12.40;;;12.50;99.90;;;;;;5032238;28;20227;-72
2022/10/31 02:21:52;;;;;;;16.13;12.70;;;12.50;99.90;;;;;;5030658;28;20607;-72
2022/10/31 02:24:27;;;;;;;17.57;13.83;;;12.50;99.90;;;;;;5032092;28;20422;-72
2022/10/31 02:27:02;;;;;;;16.90;12.57;;;12.50;99.90;;;;;;5032021;28;20489;-72
2022/10/31 02:30:05;;;;;;;22.70;14.50;;;12.40;99.90;;;;;;5024173;28;20434;-72
2022/10/31 02:32:52;;;;;;;17.20;12.93;;;12.50;99.90;;;;;;5032057;28;20418;-72
2022/10/31 02:35:21;;;;;;;19.00;12.50;;;12.40;99.90;;;;;;5029849;28;20429;-72
2022/10/31 02:38:13;;;;;;;19.20;13.03;;;12.50;99.90;;;;;;5031423;28;20489;-71
2022/10/31 02:40:50;;;;;;;19.30;13.87;;;12.40;99.90;;;;;;5031969;28;20476;-71
2022/10/31 02:43:26;;;;;;;18.47;13.47;;;12.40;99.90;;;;;;5031794;28;20422;-72
2022/10/31 02:46:30;;;;;;;19.67;13.10;;;12.40;99.90;;;;;;5025430;28;20532;-71
2022/10/31 02:49:01;;;;;;;23.60;12.83;;;12.30;99.90;;;;;;5033229;28;20803;-72
2022/10/31 02:51:27;;;;;;;16.57;12.83;;;12.30;99.90;;;;;;5032012;28;20394;-71
2022/10/31 02:53:52;;;;;;;17.53;12.40;;;12.30;99.90;;;;;;5032104;28;20980;-71
2022/10/31 02:56:19;;;;;;;16.70;13.07;;;12.30;99.90;;;;;;5031672;28;20537;-71
2022/10/31 02:58:52;;;;;;;18.17;13.57;;;12.30;99.90;;;;;;5031189;28;20199;-71
2022/10/31 03:01:55;;;;;;;24.27;13.50;;;12.20;99.90;;;;;;5031452;28;20749;-71
2022/10/31 03:04:47;;;;;;;20.30;14.60;;;12.20;99.90;;;;;;5028792;28;20457;-72
2022/10/31 03:07:31;;;;;;;25.10;14.70;;;12.20;99.90;;;;;;5030517;28;20402;-72
2022/10/31 03:10:14;;;;;;;18.57;12.70;;;12.20;99.90;;;;;;5031051;28;20409;-72
2022/10/31 03:12:45;;;;;;;18.07;13.37;;;12.20;99.90;;;;;;5030932;28;20971;-71
2022/10/31 03:15:23;;;;;;;19.30;13.70;;;12.20;99.90;;;;;;5030541;28;20425;-72
2022/10/31 03:18:08;;;;;;;18.13;13.70;;;12.20;99.90;;;;;;5031664;28;20450;-71
2022/10/31 03:20:42;;;;;;;14.77;12.20;;;12.20;99.90;;;;;;5025758;28;20902;-71
2022/10/31 03:23:13;;;;;;;17.20;13.63;;;12.20;99.90;;;;;;5030849;28;20480;-72
2022/10/31 03:25:40;;;;;;;20.80;13.20;;;12.20;99.90;;;;;;5045760;28;20409;-71
2022/10/31 03:28:08;;;;;;;19.60;13.73;;;12.20;99.90;;;;;;5036553;28;20422;-71
2022/10/31 03:30:36;;;;;;;22.80;14.00;;;12.20;99.90;;;;;;5046698;28;20750;-73
2022/10/31 03:33:04;;;;;;;15.50;13.67;;;12.20;99.90;;;;;;5044081;28;20437;-72
2022/10/31 03:35:32;;;;;;;21.37;13.93;;;12.20;99.90;;;;;;5040571;28;20422;-72
2022/10/31 03:37:59;;;;;;;17.07;14.37;;;12.20;99.90;;;;;;5048803;28;20453;-72
2022/10/31 03:40:26;;;;;;;24.90;12.97;;;12.10;99.90;;;;;;5027446;28;20422;-72
2022/10/31 03:42:57;;;;;;;23.93;14.90;;;12.20;99.90;;;;;;5041869;28;20452;-72
2022/10/31 03:45:29;;;;;;;18.00;13.60;;;12.40;99.90;;;;;;5041531;28;20410;-72
2022/10/31 03:47:56;;;;;;;20.13;13.33;;;12.30;99.90;;;;;;5052103;28;20485;-72
2022/10/31 03:50:26;;;;;;;19.17;14.30;;;12.30;99.90;;;;;;5038622;28;20417;-72
2022/10/31 03:53:32;;;;;;;16.70;13.30;;;12.30;99.90;;;;;;5048468;28;20462;-72
2022/10/31 03:56:04;;;;;;;18.70;11.90;;;12.20;99.90;;;;;;5050687;28;20895;-71
2022/10/31 03:58:38;;;;;;;24.97;14.30;;;12.20;99.90;;;;;;5039308;28;20797;-72
2022/10/31 04:01:06;;;;;;;19.17;12.77;;;12.20;99.90;;;;;;5044029;28;20430;-72
2022/10/31 04:03:37;;;;;;;19.40;15.23;;;12.20;99.90;;;;;;5047690;28;20459;-72
2022/10/31 04:06:07;;;;;;;15.17;12.23;;;12.10;99.90;;;;;;5036004;28;20443;-72
2022/10/31 04:08:42;;;;;;;20.27;13.63;;;12.10;99.90;;;;;;5039744;28;20470;-72
2022/10/31 04:11:09;;;;;;;22.80;14.17;;;12.10;99.90;;;;;;5043657;28;20503;-72
2022/10/31 04:13:37;;;;;;;15.33;13.47;;;12.10;99.90;;;;;;5047771;28;20742;-72
2022/10/31 04:16:03;;;;;;;21.97;14.40;;;12.20;99.90;;;;;;5037891;28;20422;-72
2022/10/31 04:18:29;;;;;;;16.60;12.10;;;12.20;99.90;;;;;;5038852;28;20444;-71
2022/10/31 04:21:04;;;;;;;18.27;12.50;;;12.20;99.90;;;;;;5045262;28;20493;-72
2022/10/31 04:23:30;;;;;;;19.43;11.93;;;12.30;99.90;;;;;;5047105;28;20279;-72
2022/10/31 04:25:55;;;;;;;19.47;12.20;;;12.30;99.90;;;;;;5036952;28;20735;-71
2022/10/31 04:28:21;;;;;;;16.30;12.90;;;12.20;99.90;;;;;;5040473;28;20425;-71
2022/10/31 04:30:47;;;;;;;23.97;12.70;;;12.20;99.90;;;;;;5034127;28;20171;-71
2022/10/31 04:33:13;;;;;;;18.23;12.57;;;12.20;99.90;;;;;;5033921;28;20492;-71
2022/10/31 04:35:38;;;;;;;22.67;12.23;;;12.30;99.90;;;;;;5033912;28;20187;-71
2022/10/31 04:38:04;;;;;;;18.43;12.13;;;12.20;99.90;;;;;;5034091;28;20204;-71
2022/10/31 04:40:29;;;;;;;14.27;11.13;;;12.20;99.90;;;;;;5033796;28;20267;-71
2022/10/31 04:42:55;;;;;;;20.30;12.20;;;12.10;99.90;;;;;;5033730;28;20188;-71
2022/10/31 04:45:20;;;;;;;16.77;13.00;;;12.10;99.90;;;;;;5026606;28;20642;-71
2022/10/31 04:47:46;;;;;;;15.60;11.63;;;12.20;99.90;;;;;;5033902;28;20294;-72
2022/10/31 04:50:11;;;;;;;18.93;12.30;;;12.30;99.90;;;;;;5033842;28;20518;-73
2022/10/31 04:52:45;;;;;;;19.53;11.60;;;12.20;99.90;;;;;;5033962;28;20211;-71
2022/10/31 04:55:11;;;;;;;15.97;10.43;;;12.10;99.90;;;;;;5033621;28;20530;-71
2022/10/31 04:57:41;;;;;;;14.07;10.03;;;12.10;99.90;;;;;;5033588;28;21012;-71
2022/10/31 05:00:08;;;;;;;13.83;10.33;;;12.10;99.90;;;;;;5033981;28;20402;-73
2022/10/31 05:02:34;;;;;;;17.87;11.20;;;12.10;99.90;;;;;;5030248;28;20968;-72
2022/10/31 05:04:59;;;;;;;17.83;12.80;;;12.10;99.90;;;;;;5033399;28;20419;-72
2022/10/31 05:07:24;;;;;;;13.20;11.50;;;12.20;99.90;;;;;;5033735;28;20175;-71
2022/10/31 05:09:50;;;;;;;14.90;11.13;;;12.20;99.90;;;;;;5033468;28;20618;-72
2022/10/31 05:12:15;;;;;;;23.23;11.47;;;12.10;99.90;;;;;;5033315;28;20187;-72
2022/10/31 05:14:41;;;;;;;16.20;10.83;;;12.20;99.90;;;;;;5033354;28;20176;-71
2022/10/31 05:17:06;;;;;;;15.57;10.60;;;12.20;99.90;;;;;;5033425;28;20711;-70
2022/10/31 05:19:32;;;;;;;18.43;11.60;;;12.10;99.90;;;;;;5022990;28;20192;-72
2022/10/31 05:21:57;;;;;;;14.13;11.27;;;12.10;99.90;;;;;;5035684;28;20214;-72
2022/10/31 05:24:23;;;;;;;17.80;12.10;;;12.20;99.90;;;;;;5040600;28;20572;-71
2022/10/31 05:26:49;;;;;;;15.93;11.40;;;12.20;99.90;;;;;;5032303;28;20258;-72
2022/10/31 05:29:14;;;;;;;16.27;12.20;;;12.20;99.90;;;;;;5039009;28;20175;-71
2022/10/31 05:31:40;;;;;;;17.20;12.07;;;12.10;99.90;;;;;;5049130;28;20167;-71
2022/10/31 05:34:05;;;;;;;21.33;13.33;;;12.10;99.90;;;;;;5035993;28;20249;-71
2022/10/31 05:36:31;;;;;;;14.03;10.97;;;12.00;99.90;;;;;;5044338;28;20167;-71
2022/10/31 05:38:56;;;;;;;15.17;11.50;;;12.00;99.90;;;;;;5035364;28;20188;-71
2022/10/31 05:41:22;;;;;;;13.73;11.30;;;11.90;99.90;;;;;;5046418;28;20171;-71
2022/10/31 05:43:47;;;;;;;12.70;10.10;;;12.00;99.90;;;;;;5035464;28;20195;-72
2022/10/31 05:46:13;;;;;;;19.00;13.07;;;12.00;99.90;;;;;;5044414;28;20171;-71
2022/10/31 05:48:38;;;;;;;16.93;12.93;;;12.00;99.90;;;;;;5034921;28;20179;-71
2022/10/31 05:51:04;;;;;;;16.13;12.13;;;12.00;99.90;;;;;;5032398;28;20282;-71
2022/10/31 05:53:29;;;;;;;19.20;11.53;;;12.00;99.90;;;;;;5047354;28;20224;-71
2022/10/31 05:55:55;;;;;;;20.13;12.03;;;12.00;99.90;;;;;;5035335;28;20171;-72
2022/10/31 05:58:20;;;;;;;17.60;12.50;;;12.00;99.90;;;;;;5046196;28;20211;-72
2022/10/31 06:00:46;;;;;;;20.17;14.23;;;12.00;99.90;;;;;;5042155;28;20177;-72
2022/10/31 06:03:11;;;;;;;15.13;12.37;;;12.10;99.90;;;;;;5043435;28;20255;-72
2022/10/31 06:05:37;;;;;;;21.23;12.23;;;12.10;99.90;;;;;;5051679;28;20175;-72
2022/10/31 06:08:03;;;;;;;20.30;11.53;;;12.10;99.90;;;;;;5038610;28;20163;-72
2022/10/31 06:10:28;;;;;;;17.30;12.70;;;12.10;99.90;;;;;;5054959;28;20176;-72
2022/10/31 06:12:54;;;;;;;13.27;11.13;;;12.10;99.90;;;;;;5041318;28;20665;-73
2022/10/31 06:15:20;;;;;;;14.17;11.73;;;12.10;99.90;;;;;;5031114;28;20540;-72
2022/10/31 06:17:46;;;;;;;19.33;12.20;;;12.10;99.90;;;;;;5052102;28;20194;-72
2022/10/31 06:20:11;;;;;;;21.33;12.53;;;12.10;99.90;;;;;;5038390;28;21092;-72
2022/10/31 06:22:37;;;;;;;19.87;12.67;;;12.20;99.90;;;;;;5046444;28;20198;-72
2022/10/31 06:25:03;;;;;;;23.33;14.73;;;12.20;99.90;;;;;;5047340;28;20171;-71
2022/10/31 06:27:28;;;;;;;20.13;15.10;;;12.20;99.90;;;;;;5043090;28;20182;-72
2022/10/31 06:29:54;;;;;;;23.03;14.30;;;12.30;99.90;;;;;;5048954;28;20175;-72
2022/10/31 06:32:19;;;;;;;22.07;15.60;;;12.30;99.90;;;;;;5032680;28;20278;-72
2022/10/31 06:34:47;;;;;;;19.90;13.13;;;12.40;99.90;;;;;;5032747;28;20180;-72
2022/10/31 06:37:14;;;;;;;24.30;13.30;;;12.40;99.90;;;;;;5032620;28;20274;-71
2022/10/31 06:39:40;;;;;;;21.47;13.60;;;12.50;99.90;;;;;;5032197;28;20410;-71
2022/10/31 06:42:05;;;;;;;18.97;13.67;;;12.50;99.90;;;;;;5032103;28;20460;-71
2022/10/31 06:44:31;;;;;;;15.43;12.10;;;12.70;99.90;;;;;;5032252;28;20213;-71
2022/10/31 06:46:57;;;;;;;18.07;13.23;;;13.10;99.90;;;;;;5028658;28;20209;-73
2022/10/31 06:49:23;;;;;;;13.87;12.07;;;13.70;99.90;;;;;;5032556;28;20403;-72
2022/10/31 06:51:49;;;;;;;19.60;12.40;;;13.90;99.90;;;;;;5031583;28;20908;-72
2022/10/31 06:54:15;;;;;;;15.20;11.90;;;13.40;99.90;;;;;;5023901;28;20601;-72
2022/10/31 06:56:41;;;;;;;14.50;10.30;;;13.20;99.90;;;;;;5040330;28;20906;-72
2022/10/31 06:59:06;;;;;;;15.03;10.50;;;13.20;99.90;;;;;;5041261;28;20458;-72
2022/10/31 07:01:32;;;;;;;18.30;10.90;;;13.10;99.90;;;;;;5031862;28;20238;-72
2022/10/31 07:03:57;;;;;;;19.37;10.87;;;13.10;99.90;;;;;;5034762;28;20492;-72
2022/10/31 07:06:23;;;;;;;12.40;10.23;;;13.10;99.90;;;;;;5045839;28;20164;-72
2022/10/31 07:08:49;;;;;;;16.77;12.00;;;13.10;99.90;;;;;;5040649;28;20190;-72
2022/10/31 07:11:14;;;;;;;12.23;9.43;;;13.30;99.90;;;;;;5033920;28;20186;-72
2022/10/31 07:13:40;;;;;;;16.73;11.40;;;13.30;99.90;;;;;;5034585;28;20211;-72
2022/10/31 07:16:06;;;;;;;18.97;9.77;;;13.40;99.90;;;;;;5046821;28;20219;-72
2022/10/31 07:18:33;;;;;;;16.40;9.20;;;13.50;99.90;;;;;;5038779;28;20249;-71
2022/10/31 07:20:58;;;;;;;22.83;9.87;;;13.80;99.90;;;;;;5039383;28;20410;-73
2022/10/31 07:23:24;;;;;;;12.10;9.40;;;13.70;99.90;;;;;;5045856;28;20431;-72
2022/10/31 07:25:55;;;;;;;12.57;8.97;;;13.80;99.90;;;;;;5037141;28;20677;-71
2022/10/31 07:28:21;;;;;;;14.17;10.57;;;13.90;99.90;;;;;;5049435;28;20241;-72
2022/10/31 07:30:53;;;;;;;11.33;8.60;;;14.10;99.90;;;;;;5045130;28;20409;-72
2022/10/31 07:33:19;;;;;;;13.53;9.70;;;14.30;99.90;;;;;;5041259;28;20330;-72
2022/10/31 07:35:45;;;;;;;13.00;9.33;;;14.30;99.90;;;;;;5051788;28;20504;-72
2022/10/31 07:38:12;;;;;;;11.50;10.30;;;14.40;99.90;;;;;;5038350;28;20957;-71
2022/10/31 07:40:37;;;;;;;17.43;9.57;;;14.20;99.90;;;;;;5042634;28;20169;-72
2022/10/31 07:43:03;;;;;;;12.87;10.60;;;14.40;99.90;;;;;;5044003;28;20987;-72
2022/10/31 07:45:29;;;;;;;12.03;8.87;;;14.70;99.90;;;;;;5038162;28;20193;-72
2022/10/31 07:47:54;;;;;;;14.47;8.93;;;14.60;99.90;;;;;;5038888;28;20217;-73
2022/10/31 07:50:22;;;;;;;14.43;9.93;;;14.80;99.90;;;;;;5038902;28;20190;-72
2022/10/31 07:52:48;;;;;;;16.13;9.40;;;14.90;99.90;;;;;;5035042;28;20209;-72
2022/10/31 07:55:14;;;;;;;11.47;9.00;;;15.00;99.90;;;;;;5035567;28;20444;-72
2022/10/31 07:57:40;;;;;;;13.07;9.60;;;14.90;99.90;;;;;;5051421;28;20457;-72
2022/10/31 08:00:08;;;;;;;13.20;10.43;;;14.70;99.90;;;;;;5035262;28;20495;-72
2022/10/31 08:02:33;;;;;;;13.20;9.93;;;14.70;99.90;;;;;;5035482;28;20436;-72
2022/10/31 08:04:59;;;;;;;13.50;8.80;;;14.70;99.90;;;;;;5035478;28;20413;-70
2022/10/31 08:07:26;;;;;;;14.23;9.10;;;14.80;99.90;;;;;;5035250;28;20164;-74
2022/10/31 08:09:51;;;;;;;14.80;10.07;;;14.60;99.90;;;;;;5034982;28;20179;-72
2022/10/31 08:12:17;;;;;;;11.80;9.33;;;14.80;99.90;;;;;;5034443;28;20435;-74
2022/10/31 08:14:44;;;;;;;13.60;9.23;;;14.90;99.90;;;;;;5033171;28;20184;-73
2022/10/31 08:17:09;;;;;;;20.30;10.40;;;14.70;99.90;;;;;;5035258;28;20172;-73
2022/10/31 08:19:35;;;;;;;11.37;9.23;;;14.70;99.90;;;;;;5054515;28;20412;-74
2022/10/31 08:22:00;;;;;;;12.30;9.30;;;14.70;99.90;;;;;;5054423;28;20174;-73
2022/10/31 08:24:26;;;;;;;14.00;10.83;;;14.80;99.90;;;;;;5054716;28;20312;-74
2022/10/31 08:26:51;;;;;;;14.23;10.00;;;14.80;99.90;;;;;;5054677;28;20639;-74
2022/10/31 08:29:17;;;;;;;13.27;10.10;;;14.90;99.90;;;;;;5054718;28;20168;-74
2022/10/31 08:31:43;;;;;;;11.60;9.20;;;14.80;99.90;;;;;;5052463;28;20205;-74
2022/10/31 08:34:08;;;;;;;14.60;10.20;;;14.90;99.90;;;;;;5028879;28;20361;-74
2022/10/31 08:36:34;;;;;;;15.10;9.80;;;15.00;99.90;;;;;;5016321;28;20197;-74
2022/10/31 08:39:00;;;;;;;13.60;10.00;;;14.70;99.90;;;;;;5014745;28;20203;-74
2022/10/31 08:41:26;;;;;;;15.97;11.97;;;14.70;99.90;;;;;;5014635;28;20180;-74
2022/10/31 08:43:51;;;;;;;12.90;9.80;;;14.60;99.90;;;;;;5029989;28;20428;-74
2022/10/31 08:46:17;;;;;;;17.07;10.60;;;14.40;99.90;;;;;;5020548;28;20173;-72
2022/10/31 08:48:42;;;;;;;18.80;10.70;;;14.70;99.90;;;;;;5033791;28;20224;-71
2022/10/31 08:51:09;;;;;;;18.17;10.77;;;15.20;99.90;;;;;;5044173;28;20202;-72
2022/10/31 08:53:35;;;;;;;11.53;10.17;;;15.50;99.90;;;;;;5046534;28;20663;-72
2022/10/31 08:56:00;;;;;;;17.50;11.47;;;16.00;99.90;;;;;;5042808;28;20443;-73
2022/10/31 08:58:26;;;;;;;12.30;9.80;;;16.40;99.90;;;;;;5041115;28;20194;-73
2022/10/31 09:00:53;;;;;;;20.23;10.77;;;16.30;99.90;;;;;;5034756;28;20175;-73
2022/10/31 09:03:24;;;;;;;16.53;10.73;;;15.60;99.90;;;;;;5031531;28;20192;-73
2022/10/31 09:05:55;;;;;;;15.30;11.47;;;15.20;99.90;;;;;;5031667;28;20786;-72
2022/10/31 09:08:20;;;;;;;13.30;10.53;;;14.90;99.90;;;;;;5039946;28;20451;-70
2022/10/31 09:10:46;;;;;;;18.33;12.47;;;15.00;99.90;;;;;;5035072;28;20786;-75
2022/10/31 09:13:17;;;;;;;17.23;11.17;;;15.40;99.90;;;;;;5032693;28;20590;-70
2022/10/31 09:15:45;;;;;;;15.70;11.50;;;15.30;99.90;;;;;;5041874;28;20177;-72
2022/10/31 09:18:12;;;;;;;14.03;9.97;;;15.10;99.90;;;;;;5034188;28;20452;-69
2022/10/31 09:20:39;;;;;;;16.63;10.20;;;15.00;99.90;;;;;;5033831;28;20455;-70
2022/10/31 09:23:29;;;;;;;24.17;14.37;;;15.20;99.90;;;;;;5034145;28;20454;-70
2022/10/31 09:25:55;;;;;;;20.63;12.37;;;15.70;99.90;;;;;;5022147;28;20991;-69
2022/10/31 09:28:23;;;;;;;15.07;11.33;;;15.80;99.90;;;;;;5032453;28;20421;-70
2022/10/31 09:30:51;;;;;;;13.70;10.53;;;15.20;99.90;;;;;;5046035;28;20466;-70
2022/10/31 09:33:18;;;;;;;16.03;12.80;;;15.00;99.90;;;;;;5018171;28;20466;-69
2022/10/31 09:35:43;;;;;;;16.20;11.40;;;15.40;99.90;;;;;;5032696;28;20409;-69
2022/10/31 09:38:10;;;;;;;13.90;11.73;;;15.40;99.90;;;;;;5037493;28;20457;-69
2022/10/31 09:40:40;;;;;;;17.80;13.37;;;15.40;99.90;;;;;;5034507;28;20172;-69
2022/10/31 09:43:18;;;;;;;16.40;12.27;;;15.20;99.90;;;;;;5039652;28;20477;-69
2022/10/31 09:46:06;;;;;;;16.13;13.13;;;15.10;99.90;;;;;;5031721;28;20502;-69
2022/10/31 09:48:51;;;;;;;20.30;12.80;;;14.80;99.90;;;;;;5031173;28;20428;-70
2022/10/31 09:51:29;;;;;;;16.90;13.80;;;15.00;99.90;;;;;;5030576;28;20422;-73
2022/10/31 09:54:05;;;;;;;19.23;12.00;;;15.10;99.90;;;;;;5031575;28;20812;-71
2022/10/31 09:56:32;;;;;;;16.50;11.80;;;15.40;99.90;;;;;;5031352;28;20434;-72
2022/10/31 09:59:02;;;;;;;20.37;13.67;;;15.60;99.90;;;;;;5031784;28;20839;-72
2022/10/31 10:01:45;;;;;;;18.57;13.60;;;15.60;99.90;;;;;;5031559;28;20488;-71
2022/10/31 10:04:37;;;;;;;18.40;12.87;;;15.50;99.90;;;;;;5031988;28;20428;-71
2022/10/31 10:07:21;;;;;;;19.47;12.90;;;15.70;99.90;;;;;;5027732;28;20417;-73
2022/10/31 10:09:46;;;;;;;21.40;14.40;;;15.90;99.90;;;;;;5031621;28;20893;-73
2022/10/31 10:12:18;;;;;;;18.73;14.03;;;15.80;99.90;;;;;;5031372;28;20434;-71
2022/10/31 10:14:53;;;;;;;24.73;15.37;;;15.80;99.90;;;;;;5031589;28;20181;-71
2022/10/31 10:17:27;;;;;;;21.17;14.50;;;15.80;99.90;;;;;;5033305;28;21706;-72
2022/10/31 10:20:19;;;;;;;21.33;13.80;;;16.00;99.90;;;;;;5037983;28;20910;-72
2022/10/31 10:22:53;;;;;;;23.33;15.30;;;16.20;99.90;;;;;;5027266;28;20830;-72
2022/10/31 10:25:46;;;;;;;16.43;13.40;;;16.20;99.90;;;;;;5015589;28;20751;-72
2022/10/31 10:28:22;;;;;;;19.63;13.27;;;16.20;99.90;;;;;;5022060;28;20779;-72
2022/10/31 10:30:58;;;;;;;22.63;15.20;;;16.40;99.90;;;;;;5029819;28;20928;-72
2022/10/31 10:33:43;;;;;;;23.10;15.40;;;16.60;99.90;;;;;;5031390;28;20443;-73
2022/10/31 10:36:17;;;;;;;23.37;16.73;;;16.60;99.90;;;;;;5030806;28;20523;-73
2022/10/31 10:39:04;;;;;;;34.93;18.47;;;16.40;99.90;;;;;;5031136;28;20451;-72
2022/10/31 10:41:33;;;;;;;29.63;18.23;;;16.50;99.90;;;;;;5026946;28;20414;-72
2022/10/31 10:43:58;;;;;;;19.73;15.30;;;16.30;99.90;;;;;;5034490;28;20425;-71
2022/10/31 10:49:30;;;;;;;23.47;15.17;;;16.90;99.90;;;;;;5030030;28;20705;-73
2022/10/31 10:52:13;;;;;;;29.53;18.07;;;17.10;99.90;;;;;;5038063;28;20421;-72
2022/10/31 10:55:15;;;;;;;21.70;14.97;;;17.10;99.90;;;;;;5030792;28;20436;-72
2022/10/31 10:58:00;;;;;;;26.50;16.60;;;17.00;99.90;;;;;;5014579;28;20449;-72
2022/10/31 11:00:30;;;;;;;24.13;17.13;;;17.30;99.90;;;;;;5029823;28;20436;-72
2022/10/31 11:02:56;;;;;;;23.20;16.73;;;17.50;99.90;;;;;;5042045;28;20446;-72
2022/10/31 11:05:42;;;;;;;32.27;18.53;;;17.40;99.90;;;;;;5030189;28;20444;-73
2022/10/31 11:08:08;;;;;;;32.83;16.90;;;17.40;99.90;;;;;;5030806;28;20405;-73
2022/10/31 11:10:34;;;;;;;30.17;17.33;;;17.50;99.90;;;;;;5030189;28;20482;-72
2022/10/31 11:13:12;;;;;;;20.40;15.17;;;17.30;99.90;;;;;;5030681;28;20218;-72
2022/10/31 11:16:00;;;;;;;27.50;18.50;;;17.40;99.90;;;;;;5023787;28;20937;-73
2022/10/31 11:18:30;;;;;;;19.20;14.73;;;17.70;99.90;;;;;;5050216;28;20963;-73
2022/10/31 11:20:58;;;;;;;19.30;14.17;;;17.70;99.90;;;;;;5039260;28;20405;-72
2022/10/31 11:23:26;;;;;;;28.53;18.53;;;17.90;99.90;;;;;;5025034;28;20504;-73
2022/10/31 11:25:59;;;;;;;26.17;16.43;;;17.80;99.90;;;;;;5029920;28;20418;-72
2022/10/31 11:28:26;;;;;;;25.33;17.30;;;17.90;99.90;;;;;;5048591;28;20501;-72
2022/10/31 11:30:55;;;;;;;20.87;15.47;;;18.10;99.90;;;;;;5046705;28;20421;-72
2022/10/31 11:33:44;;;;;;;26.90;15.37;;;18.10;99.90;;;;;;5030027;28;20999;-72
2022/10/31 11:36:21;;;;;;;23.47;16.50;;;18.20;99.90;;;;;;5008088;28;20443;-73
2022/10/31 11:38:47;;;;;;;21.30;14.70;;;17.90;99.90;;;;;;5028983;28;20466;-72
2022/10/31 11:41:35;;;;;;;20.20;14.80;;;17.80;99.90;;;;;;5027069;28;20459;-72
2022/10/31 11:44:14;;;;;;;26.27;16.63;;;18.00;99.90;;;;;;5030380;28;20427;-74
2022/10/31 11:46:52;;;;;;;23.20;16.30;;;18.10;99.90;;;;;;5029972;28;20416;-74
2022/10/31 11:49:30;;;;;;;18.00;13.50;;;18.30;99.90;;;;;;5030985;28;20415;-71
2022/10/31 11:52:00;;;;;;;26.10;15.47;;;18.40;99.90;;;;;;5025458;28;20467;-72
2022/10/31 11:54:29;;;;;;;22.00;16.40;;;18.40;99.90;;;;;;5044956;28;20497;-72
2022/10/31 11:56:55;;;;;;;18.03;15.93;;;18.20;99.90;;;;;;5044346;28;20411;-72
2022/10/31 11:59:29;;;;;;;20.83;15.47;;;18.00;99.90;;;;;;5029369;28;20467;-71
2022/10/31 12:01:57;;;;;;;20.90;14.43;;;18.00;99.90;;;;;;5028908;28;20408;-71
2022/10/31 12:04:47;;;;;;;19.13;13.73;;;18.20;99.90;;;;;;5042551;28;20994;-73
2022/10/31 12:07:13;;;;;;;23.83;15.47;;;18.20;99.90;;;;;;5049752;28;20416;-73
2022/10/31 12:09:39;;;;;;;18.90;13.90;;;18.30;99.90;;;;;;5050434;28;20412;-72
2022/10/31 12:12:26;;;;;;;22.37;16.20;;;18.30;99.90;;;;;;5053408;28;20688;-73
2022/10/31 12:15:02;;;;;;;22.13;16.03;;;18.30;99.90;;;;;;5053785;28;20416;-73
2022/10/31 12:17:41;;;;;;;22.33;15.90;;;18.10;99.90;;;;;;5030939;28;21122;-73
2022/10/31 12:20:21;;;;;;;29.77;17.37;;;18.20;99.90;;;;;;5033874;28;20771;-73
2022/10/31 12:23:06;;;;;;;26.00;15.53;;;18.30;99.90;;;;;;5034431;28;20434;-73
2022/10/31 12:25:55;;;;;;;20.20;15.17;;;18.50;99.90;;;;;;5034347;28;20402;-73
2022/10/31 12:28:32;;;;;;;25.70;16.80;;;18.60;99.90;;;;;;5026417;28;20431;-73
2022/10/31 12:31:29;;;;;;;23.87;15.30;;;18.60;99.90;;;;;;5034560;28;20777;-73
2022/10/31 12:34:17;;;;;;;23.90;16.60;;;18.60;99.90;;;;;;5016652;28;20489;-72
2022/10/31 12:37:04;;;;;;;22.00;14.97;;;18.50;99.90;;;;;;5018216;28;20403;-72
2022/10/31 12:39:38;;;;;;;20.53;15.93;;;18.50;99.90;;;;;;5029445;28;20473;-72
2022/10/31 12:42:32;;;;;;;23.73;17.00;;;18.50;99.90;;;;;;5027810;28;20488;-72
2022/10/31 12:45:23;;;;;;;29.97;15.60;;;18.50;99.90;;;;;;5013672;28;20408;-72
2022/10/31 12:47:58;;;;;;;21.50;15.90;;;18.50;99.90;;;;;;5027327;28;20487;-73